createdAt,value
2023-03-14T00:00:23.923Z,17
2023-03-14T00:01:30.962Z,17
2023-03-14T00:02:38.245Z,16
2023-03-14T00:03:45.352Z,20
2023-03-14T00:04:52.481Z,30
2023-03-14T00:05:59.496Z,32
2023-03-14T00:07:06.542Z,57
2023-03-14T00:08:16.446Z,30
2023-03-14T00:09:23.464Z,28
2023-03-14T00:10:32.089Z,22
2023-03-14T00:11:40.049Z,22
2023-03-14T00:12:47.186Z,19
2023-03-14T00:13:54.229Z,18
2023-03-14T00:15:01.331Z,17
2023-03-14T00:16:08.690Z,16
2023-03-14T00:17:15.691Z,18
2023-03-14T00:18:22.864Z,17
2023-03-14T00:19:30.066Z,17
2023-03-14T00:20:37.158Z,18
2023-03-14T00:21:44.219Z,17
2023-03-14T00:22:51.252Z,17
2023-03-14T00:23:58.314Z,19
2023-03-14T00:25:05.412Z,18
2023-03-14T00:26:12.568Z,17
2023-03-14T00:27:19.736Z,18
2023-03-14T00:28:26.806Z,18
2023-03-14T00:29:33.826Z,18
2023-03-14T00:30:41.080Z,17
2023-03-14T00:31:48.204Z,15
2023-03-14T00:32:55.442Z,16
2023-03-14T00:34:02.558Z,19
2023-03-14T00:35:09.727Z,28
2023-03-14T00:36:16.760Z,29
2023-03-14T00:37:24.016Z,35
2023-03-14T00:38:31.117Z,34
2023-03-14T00:39:38.445Z,31
2023-03-14T00:40:45.321Z,32
2023-03-14T00:41:52.392Z,33
2023-03-14T00:42:59.419Z,30
2023-03-14T00:44:06.614Z,32
2023-03-14T00:45:13.783Z,30
2023-03-14T00:46:20.945Z,32
2023-03-14T00:47:27.889Z,31
2023-03-14T00:48:34.888Z,32
2023-03-14T00:49:41.886Z,30
2023-03-14T00:50:49.053Z,30
2023-03-14T00:51:56.094Z,30
2023-03-14T00:53:03.217Z,29
2023-03-14T00:54:10.284Z,27
2023-03-14T00:55:18.296Z,24
2023-03-14T00:56:25.403Z,18
2023-03-14T00:57:32.521Z,16
2023-03-14T00:58:39.536Z,23
2023-03-14T00:59:46.629Z,16
2023-03-14T01:00:53.597Z,17
2023-03-14T01:02:00.709Z,14
2023-03-14T01:03:10.790Z,14
2023-03-14T01:04:17.885Z,14
2023-03-14T01:05:25.015Z,13
2023-03-14T01:06:32.139Z,15
2023-03-14T01:07:39.217Z,15
2023-03-14T01:08:46.237Z,13
2023-03-14T01:09:53.280Z,14
2023-03-14T01:11:00.428Z,14
2023-03-14T01:12:10.414Z,13
2023-03-14T01:13:17.532Z,14
2023-03-14T01:14:24.534Z,14
2023-03-14T01:15:31.510Z,15
2023-03-14T01:16:38.563Z,12
2023-03-14T01:17:45.514Z,13
2023-03-14T01:18:52.554Z,13
2023-03-14T01:20:01.512Z,12
2023-03-14T01:21:08.711Z,14
2023-03-14T01:22:17.173Z,15
2023-03-14T01:23:24.295Z,14
2023-03-14T01:24:31.339Z,11
2023-03-14T01:25:38.399Z,13
2023-03-14T01:26:45.511Z,12
2023-03-14T01:27:52.556Z,11
2023-03-14T01:28:59.658Z,12
2023-03-14T01:30:06.706Z,12
2023-03-14T01:31:14.162Z,12
2023-03-14T01:32:21.270Z,13
2023-03-14T01:33:28.493Z,10
2023-03-14T01:34:35.488Z,12
2023-03-14T01:35:42.493Z,10
2023-03-14T01:36:49.521Z,10
2023-03-14T01:37:56.501Z,10
2023-03-14T01:39:03.612Z,10
2023-03-14T01:40:10.721Z,10
2023-03-14T01:41:17.759Z,10
2023-03-14T01:42:24.788Z,12
2023-03-14T01:43:31.830Z,10
2023-03-14T01:44:38.899Z,9
2023-03-14T01:45:51.256Z,10
2023-03-14T01:47:08.627Z,9
2023-03-14T01:48:15.701Z,8
2023-03-14T01:49:22.735Z,7
2023-03-14T01:50:34.949Z,11
2023-03-14T01:51:42.002Z,13
2023-03-14T01:52:57.366Z,12
2023-03-14T01:54:04.358Z,12
2023-03-14T01:55:21.791Z,13
2023-03-14T01:56:28.817Z,12
2023-03-14T01:57:36.024Z,11
2023-03-14T01:58:43.224Z,11
2023-03-14T01:59:50.277Z,11
2023-03-14T02:01:05.597Z,10
2023-03-14T02:02:12.641Z,11
2023-03-14T02:03:19.655Z,10
2023-03-14T02:04:26.741Z,8
2023-03-14T02:05:33.768Z,11
2023-03-14T02:06:40.809Z,10
2023-03-14T02:07:50.723Z,8
2023-03-14T02:09:00.293Z,8
2023-03-14T02:10:07.497Z,8
2023-03-14T02:11:14.547Z,9
2023-03-14T02:12:21.636Z,8
2023-03-14T02:13:28.675Z,8
2023-03-14T02:14:35.724Z,8
2023-03-14T02:15:42.780Z,8
2023-03-14T02:16:50.751Z,9
2023-03-14T02:17:57.803Z,7
2023-03-14T02:19:04.771Z,8
2023-03-14T02:20:11.827Z,8
2023-03-14T02:21:24.023Z,10
2023-03-14T02:22:34.079Z,8
2023-03-14T02:23:41.116Z,10
2023-03-14T02:24:56.315Z,9
2023-03-14T02:26:13.761Z,9
2023-03-14T02:27:20.749Z,8
2023-03-14T02:28:27.736Z,10
2023-03-14T02:29:34.808Z,8
2023-03-14T02:30:41.710Z,8
2023-03-14T02:31:48.904Z,8
2023-03-14T02:32:55.980Z,8
2023-03-14T02:34:02.915Z,8
2023-03-14T02:35:10.053Z,9
2023-03-14T02:36:17.131Z,7
2023-03-14T02:37:24.164Z,8
2023-03-14T02:38:31.440Z,7
2023-03-14T02:39:46.399Z,10
2023-03-14T02:40:53.554Z,10
2023-03-14T02:42:00.555Z,8
2023-03-14T02:43:07.594Z,9
2023-03-14T02:44:14.510Z,8
2023-03-14T02:45:21.643Z,7
2023-03-14T02:46:28.586Z,9
2023-03-14T02:47:35.569Z,10
2023-03-14T02:48:42.581Z,9
2023-03-14T02:49:49.552Z,9
2023-03-14T02:50:56.572Z,8
2023-03-14T02:52:03.649Z,7
2023-03-14T02:53:10.693Z,9
2023-03-14T02:54:20.327Z,10
2023-03-14T02:55:27.342Z,8
2023-03-14T02:56:34.385Z,9
2023-03-14T02:57:41.436Z,7
2023-03-14T02:58:48.508Z,8
2023-03-14T02:59:55.606Z,8
2023-03-14T03:01:02.698Z,10
2023-03-14T03:02:09.854Z,10
2023-03-14T03:03:16.915Z,9
2023-03-14T03:04:23.895Z,7
2023-03-14T03:05:36.018Z,10
2023-03-14T03:06:42.980Z,8
2023-03-14T03:07:50.177Z,9
2023-03-14T03:08:57.251Z,8
2023-03-14T03:10:04.311Z,8
2023-03-14T03:11:11.778Z,10
2023-03-14T03:12:21.180Z,9
2023-03-14T03:13:28.265Z,10
2023-03-14T03:14:35.383Z,10
2023-03-14T03:15:42.546Z,10
2023-03-14T03:16:49.587Z,14
2023-03-14T03:17:56.556Z,15
2023-03-14T03:19:03.548Z,15
2023-03-14T03:20:10.568Z,18
2023-03-14T03:21:17.648Z,16
2023-03-14T03:22:24.699Z,17
2023-03-14T03:23:31.715Z,15
2023-03-14T03:24:38.969Z,14
2023-03-14T03:25:46.022Z,14
2023-03-14T03:26:53.041Z,13
2023-03-14T03:28:00.294Z,11
2023-03-14T03:29:07.515Z,12
2023-03-14T03:30:14.600Z,12
2023-03-14T03:31:21.734Z,12
2023-03-14T03:32:28.790Z,12
2023-03-14T03:33:35.803Z,11
2023-03-14T03:34:43.048Z,10
2023-03-14T03:35:50.142Z,12
2023-03-14T03:36:57.133Z,10
2023-03-14T03:38:04.137Z,11
2023-03-14T03:39:11.144Z,10
2023-03-14T03:40:18.159Z,11
2023-03-14T03:41:25.343Z,10
2023-03-14T03:42:32.342Z,10
2023-03-14T03:43:39.484Z,11
2023-03-14T03:44:46.503Z,13
2023-03-14T03:45:53.608Z,10
2023-03-14T03:47:00.604Z,11
2023-03-14T03:48:07.694Z,13
2023-03-14T03:49:14.703Z,13
2023-03-14T03:50:21.760Z,10
2023-03-14T03:51:28.809Z,12
2023-03-14T03:52:35.843Z,9
2023-03-14T03:53:42.963Z,8
2023-03-14T03:54:50.063Z,9
2023-03-14T03:55:58.206Z,9
2023-03-14T03:57:05.268Z,9
2023-03-14T03:58:12.422Z,11
2023-03-14T03:59:19.452Z,9
2023-03-14T04:00:26.566Z,9
2023-03-14T04:01:34.847Z,8
2023-03-14T04:02:41.913Z,12
2023-03-14T04:03:49.192Z,11
2023-03-14T04:04:56.067Z,12
2023-03-14T04:06:03.189Z,12
2023-03-14T04:07:12.709Z,10
2023-03-14T04:08:19.937Z,12
2023-03-14T04:09:27.280Z,12
2023-03-14T04:10:34.323Z,13
2023-03-14T04:11:41.392Z,13
2023-03-14T04:12:48.560Z,15
2023-03-14T04:13:55.571Z,17
2023-03-14T04:15:03.780Z,19
2023-03-14T04:16:11.334Z,19
2023-03-14T04:17:18.346Z,17
2023-03-14T04:18:25.438Z,19
2023-03-14T04:19:32.562Z,17
2023-03-14T04:20:39.530Z,20
2023-03-14T04:21:46.587Z,23
2023-03-14T04:22:53.617Z,20
2023-03-14T04:24:01.553Z,26
2023-03-14T04:25:08.957Z,21
2023-03-14T04:26:16.004Z,19
2023-03-14T04:27:23.087Z,20
2023-03-14T04:28:30.106Z,18
2023-03-14T04:29:37.368Z,14
2023-03-14T04:30:44.452Z,13
2023-03-14T04:31:51.573Z,14
2023-03-14T04:32:58.673Z,12
2023-03-14T04:34:05.619Z,14
2023-03-14T04:35:12.677Z,13
2023-03-14T04:36:19.932Z,11
2023-03-14T04:37:26.997Z,15
2023-03-14T04:38:34.024Z,15
2023-03-14T04:39:41.073Z,13
2023-03-14T04:40:48.128Z,13
2023-03-14T04:41:55.128Z,14
2023-03-14T04:43:02.208Z,14
2023-03-14T04:44:09.198Z,13
2023-03-14T04:45:16.280Z,13
2023-03-14T04:46:23.416Z,11
2023-03-14T04:47:30.453Z,14
2023-03-14T04:48:37.576Z,13
2023-03-14T04:49:44.632Z,13
2023-03-14T04:50:51.726Z,15
2023-03-14T04:51:58.765Z,10
2023-03-14T04:53:05.820Z,15
2023-03-14T04:54:12.950Z,13
2023-03-14T04:55:20.081Z,12
2023-03-14T04:56:27.165Z,12
2023-03-14T04:57:34.220Z,11
2023-03-14T04:58:41.279Z,12
2023-03-14T04:59:48.250Z,16
2023-03-14T05:00:55.529Z,14
2023-03-14T05:02:07.864Z,14
2023-03-14T05:03:14.905Z,14
2023-03-14T05:04:21.939Z,15
2023-03-14T05:05:29.021Z,12
2023-03-14T05:06:36.095Z,11
2023-03-14T05:07:42.996Z,11
2023-03-14T05:08:50.027Z,9
2023-03-14T05:09:57.306Z,8
2023-03-14T05:11:04.304Z,9
2023-03-14T05:12:11.424Z,9
2023-03-14T05:13:18.414Z,13
2023-03-14T05:14:25.202Z,9
2023-03-14T05:15:32.278Z,10
2023-03-14T05:16:39.291Z,9
2023-03-14T05:17:46.048Z,10
2023-03-14T05:18:52.874Z,9
2023-03-14T05:19:59.709Z,9
2023-03-14T05:21:06.670Z,9
2023-03-14T05:22:15.322Z,9
2023-03-14T05:23:22.260Z,7
2023-03-14T05:24:29.064Z,9
2023-03-14T05:25:36.694Z,9
2023-03-14T05:26:43.545Z,10
2023-03-14T05:27:50.397Z,9
2023-03-14T05:28:57.324Z,8
2023-03-14T05:30:04.206Z,9
2023-03-14T05:31:11.584Z,10
2023-03-14T05:32:18.371Z,11
2023-03-14T05:33:25.473Z,9
2023-03-14T05:34:32.490Z,8
2023-03-14T05:35:40.445Z,8
2023-03-14T05:36:47.702Z,9
2023-03-14T05:37:54.718Z,10
2023-03-14T05:39:01.556Z,9
2023-03-14T05:40:08.418Z,9
2023-03-14T05:41:15.597Z,11
2023-03-14T05:42:22.413Z,11
2023-03-14T05:43:29.325Z,11
2023-03-14T05:44:36.156Z,11
2023-03-14T05:45:43.078Z,9
2023-03-14T05:46:49.954Z,14
2023-03-14T05:47:56.832Z,12
2023-03-14T05:49:03.694Z,12
2023-03-14T05:50:10.536Z,12
2023-03-14T05:51:17.376Z,11
2023-03-14T05:52:24.247Z,11
2023-03-14T05:53:31.322Z,17
2023-03-14T05:54:38.116Z,17
2023-03-14T05:55:45.076Z,10
2023-03-14T05:56:51.951Z,15
2023-03-14T05:57:58.851Z,11
2023-03-14T05:59:05.701Z,10
2023-03-14T06:00:12.531Z,13
2023-03-14T06:01:19.655Z,11
2023-03-14T06:02:26.614Z,10
2023-03-14T06:03:33.340Z,10
2023-03-14T06:04:40.360Z,12
2023-03-14T06:05:47.324Z,15
2023-03-14T06:06:54.140Z,10
2023-03-14T06:08:00.987Z,11
2023-03-14T06:09:08.129Z,13
2023-03-14T06:10:14.780Z,11
2023-03-14T06:11:21.607Z,11
2023-03-14T06:12:28.522Z,12
2023-03-14T06:13:35.372Z,12
2023-03-14T06:14:42.270Z,10
2023-03-14T06:15:49.154Z,10
2023-03-14T06:16:56.085Z,14
2023-03-14T06:18:05.820Z,12
2023-03-14T06:19:12.627Z,12
2023-03-14T06:20:19.499Z,12
2023-03-14T06:21:26.281Z,13
2023-03-14T06:22:33.158Z,13
2023-03-14T06:23:39.978Z,14
2023-03-14T06:24:46.908Z,14
2023-03-14T06:25:53.694Z,11
2023-03-14T06:27:00.562Z,12
2023-03-14T06:28:07.515Z,15
2023-03-14T06:29:14.276Z,12
2023-03-14T06:30:21.108Z,11
2023-03-14T06:31:28.074Z,18
2023-03-14T06:32:35.109Z,17
2023-03-14T06:33:41.916Z,23
2023-03-14T06:34:48.790Z,26
2023-03-14T06:35:55.870Z,22
2023-03-14T06:37:02.711Z,22
2023-03-14T06:38:09.504Z,29
2023-03-14T06:39:16.325Z,25
2023-03-14T06:40:23.232Z,29
2023-03-14T06:41:30.094Z,22
2023-03-14T06:42:37.094Z,28
2023-03-14T06:43:43.927Z,24
2023-03-14T06:44:50.712Z,25
2023-03-14T06:45:57.659Z,25
2023-03-14T06:47:04.488Z,24
2023-03-14T06:48:11.424Z,22
2023-03-14T06:49:18.284Z,21
2023-03-14T06:50:25.241Z,20
2023-03-14T06:51:32.160Z,22
2023-03-14T06:52:39.038Z,18
2023-03-14T06:53:45.996Z,17
2023-03-14T06:54:52.925Z,14
2023-03-14T06:55:59.837Z,19
2023-03-14T06:57:06.851Z,16
2023-03-14T06:58:13.691Z,17
2023-03-14T06:59:20.505Z,17
2023-03-14T07:00:27.518Z,22
2023-03-14T07:01:36.508Z,15
2023-03-14T07:02:43.576Z,11
2023-03-14T07:03:50.054Z,14
2023-03-14T07:04:56.944Z,10
2023-03-14T07:06:03.871Z,11
2023-03-14T07:07:10.827Z,10
2023-03-14T07:08:17.719Z,11
2023-03-14T07:09:24.603Z,10
2023-03-14T07:10:31.410Z,10
2023-03-14T07:11:38.197Z,11
2023-03-14T07:12:45.178Z,10
2023-03-14T07:13:52.114Z,13
2023-03-14T07:15:03.270Z,12
2023-03-14T07:16:05.909Z,10
2023-03-14T07:17:12.762Z,12
2023-03-14T07:18:19.718Z,14
2023-03-14T07:19:26.630Z,13
2023-03-14T07:20:33.501Z,13
2023-03-14T07:21:40.325Z,11
2023-03-14T07:22:47.398Z,11
2023-03-14T07:23:54.411Z,9
2023-03-14T07:25:02.301Z,13
2023-03-14T07:26:09.158Z,12
2023-03-14T07:27:16.165Z,11
2023-03-14T07:28:23.945Z,10
2023-03-14T07:29:30.825Z,11
2023-03-14T07:30:37.658Z,12
2023-03-14T07:31:44.564Z,14
2023-03-14T07:32:52.226Z,9
2023-03-14T07:33:58.246Z,10
2023-03-14T07:35:05.043Z,10
2023-03-14T07:36:12.077Z,9
2023-03-14T07:37:18.968Z,11
2023-03-14T07:38:25.868Z,10
2023-03-14T07:39:32.835Z,8
2023-03-14T07:40:39.697Z,8
2023-03-14T07:41:46.582Z,9
2023-03-14T07:42:53.511Z,10
2023-03-14T07:44:01.025Z,9
2023-03-14T07:45:08.053Z,12
2023-03-14T07:46:14.759Z,11
2023-03-14T07:47:24.842Z,15
2023-03-14T07:48:32.686Z,9
2023-03-14T07:49:39.832Z,10
2023-03-14T07:50:46.740Z,11
2023-03-14T07:51:53.696Z,12
2023-03-14T07:53:00.571Z,13
2023-03-14T07:54:07.497Z,10
2023-03-14T07:55:14.510Z,12
2023-03-14T07:56:21.487Z,18
2023-03-14T07:57:28.691Z,13
2023-03-14T07:58:35.716Z,12
2023-03-14T07:59:42.441Z,14
2023-03-14T08:00:49.351Z,13
2023-03-14T08:01:56.191Z,14
2023-03-14T08:03:03.210Z,14
2023-03-14T08:04:10.202Z,13
2023-03-14T08:05:17.076Z,12
2023-03-14T08:06:25.282Z,15
2023-03-14T08:07:32.263Z,12
2023-03-14T08:08:39.469Z,12
2023-03-14T08:09:47.206Z,11
2023-03-14T08:10:54.382Z,10
2023-03-14T08:12:02.159Z,10
2023-03-14T08:13:09.489Z,11
2023-03-14T08:14:16.480Z,12
2023-03-14T08:15:23.278Z,11
2023-03-14T08:16:30.261Z,9
2023-03-14T08:17:37.865Z,10
2023-03-14T08:18:44.806Z,8
2023-03-14T08:19:51.912Z,9
2023-03-14T08:20:58.835Z,12
2023-03-14T08:22:05.847Z,11
2023-03-14T08:23:12.935Z,11
2023-03-14T08:24:19.820Z,12
2023-03-14T08:25:26.731Z,12
2023-03-14T08:26:33.703Z,13
2023-03-14T08:27:40.656Z,11
2023-03-14T08:28:47.683Z,9
2023-03-14T08:29:54.700Z,10
2023-03-14T08:31:01.977Z,9
2023-03-14T08:32:08.956Z,8
2023-03-14T08:33:15.726Z,10
2023-03-14T08:34:22.737Z,13
2023-03-14T08:35:29.573Z,12
2023-03-14T08:36:36.624Z,11
2023-03-14T08:37:43.883Z,11
2023-03-14T08:38:50.783Z,11
2023-03-14T08:39:57.723Z,12
2023-03-14T08:41:05.664Z,12
2023-03-14T08:42:12.489Z,10
2023-03-14T08:43:19.348Z,10
2023-03-14T08:44:27.496Z,8
2023-03-14T08:45:36.565Z,11
2023-03-14T08:46:43.490Z,11
2023-03-14T08:47:50.333Z,8
2023-03-14T08:48:57.273Z,9
2023-03-14T08:50:04.129Z,11
2023-03-14T08:51:11.177Z,9
2023-03-14T08:52:18.045Z,12
2023-03-14T08:53:24.981Z,8
2023-03-14T08:54:31.894Z,9
2023-03-14T08:55:38.726Z,7
2023-03-14T08:56:45.563Z,9
2023-03-14T08:57:52.363Z,12
2023-03-14T08:58:59.165Z,9
2023-03-14T09:00:06.080Z,15
2023-03-14T09:01:16.143Z,13
2023-03-14T09:02:22.868Z,12
2023-03-14T09:03:29.944Z,16
2023-03-14T09:04:36.747Z,17
2023-03-14T09:05:43.744Z,15
2023-03-14T09:06:50.637Z,10
2023-03-14T09:07:57.573Z,9
2023-03-14T09:09:04.477Z,10
2023-03-14T09:10:11.278Z,8
2023-03-14T09:11:18.077Z,11
2023-03-14T09:12:24.908Z,10
2023-03-14T09:13:31.980Z,11
2023-03-14T09:14:38.733Z,10
2023-03-14T09:15:45.585Z,11
2023-03-14T09:17:00.141Z,13
2023-03-14T09:18:06.940Z,11
2023-03-14T09:19:13.718Z,10
2023-03-14T09:20:20.611Z,11
2023-03-14T09:21:27.475Z,10
2023-03-14T09:22:34.381Z,10
2023-03-14T09:23:41.208Z,10
2023-03-14T09:24:47.977Z,10
2023-03-14T09:25:54.798Z,9
2023-03-14T09:27:01.603Z,12
2023-03-14T09:28:08.520Z,9
2023-03-14T09:29:15.348Z,7
2023-03-14T09:30:22.209Z,7
2023-03-14T09:31:28.995Z,10
2023-03-14T09:32:36.093Z,10
2023-03-14T09:33:42.816Z,9
2023-03-14T09:34:49.625Z,8
2023-03-14T09:35:56.452Z,13
2023-03-14T09:37:03.239Z,12
2023-03-14T09:38:10.066Z,9
2023-03-14T09:39:16.980Z,10
2023-03-14T09:40:23.742Z,10
2023-03-14T09:41:30.528Z,9
2023-03-14T09:42:37.360Z,12
2023-03-14T09:43:44.194Z,12
2023-03-14T09:44:51.045Z,11
2023-03-14T09:45:57.975Z,11
2023-03-14T09:47:04.703Z,10
2023-03-14T09:48:11.613Z,8
2023-03-14T09:49:18.442Z,8
2023-03-14T09:50:31.419Z,10
2023-03-14T09:51:41.187Z,12
2023-03-14T09:52:47.999Z,11
2023-03-14T09:53:54.877Z,9
2023-03-14T09:55:01.684Z,10
2023-03-14T09:56:13.928Z,10
2023-03-14T09:57:28.895Z,9
2023-03-14T09:58:35.694Z,8
2023-03-14T09:59:42.873Z,9
2023-03-14T10:00:49.888Z,12
2023-03-14T10:01:56.585Z,10
2023-03-14T10:03:06.263Z,8
2023-03-14T10:04:15.844Z,12
2023-03-14T10:05:22.608Z,10
2023-03-14T10:06:29.393Z,9
2023-03-14T10:07:36.240Z,11
2023-03-14T10:08:43.175Z,10
2023-03-14T10:09:50.001Z,11
2023-03-14T10:10:56.914Z,10
2023-03-14T10:12:08.813Z,12
2023-03-14T10:13:10.611Z,10
2023-03-14T10:14:17.637Z,12
2023-03-14T10:15:34.797Z,9
2023-03-14T10:16:41.684Z,8
2023-03-14T10:17:48.462Z,11
2023-03-14T10:18:55.314Z,8
2023-03-14T10:20:04.897Z,9
2023-03-14T10:21:11.916Z,11
2023-03-14T10:22:21.580Z,9
2023-03-14T10:23:28.332Z,11
2023-03-14T10:24:35.163Z,12
2023-03-14T10:25:41.986Z,11
2023-03-14T10:26:59.144Z,10
2023-03-14T10:28:08.984Z,12
2023-03-14T10:29:26.183Z,10
2023-03-14T10:30:35.849Z,13
2023-03-14T10:31:42.603Z,23
2023-03-14T10:32:49.544Z,30
2023-03-14T10:33:56.249Z,20
2023-03-14T10:35:02.970Z,13
2023-03-14T10:36:18.122Z,12
2023-03-14T10:37:24.583Z,16
2023-03-14T10:38:31.359Z,11
2023-03-14T10:39:38.172Z,15
2023-03-14T10:40:44.948Z,12
2023-03-14T10:41:54.755Z,11
2023-03-14T10:43:06.679Z,11
2023-03-14T10:44:13.832Z,10
2023-03-14T10:45:20.217Z,10
2023-03-14T10:46:35.017Z,13
2023-03-14T10:47:41.729Z,13
2023-03-14T10:48:53.656Z,13
2023-03-14T10:50:00.401Z,12
2023-03-14T10:51:17.553Z,12
2023-03-14T10:52:30.680Z,12
2023-03-14T10:53:31.261Z,14
2023-03-14T10:54:43.230Z,13
2023-03-14T10:55:50.015Z,13
2023-03-14T10:56:56.868Z,14
2023-03-14T10:58:03.638Z,16
2023-03-14T10:59:10.406Z,12
2023-03-14T11:00:17.246Z,14
2023-03-14T11:01:24.108Z,12
2023-03-14T11:02:36.044Z,15
2023-03-14T11:03:50.570Z,15
2023-03-14T11:04:57.402Z,14
2023-03-14T11:06:10.145Z,13
2023-03-14T11:07:19.855Z,16
2023-03-14T11:08:31.997Z,16
2023-03-14T11:09:46.638Z,13
2023-03-14T11:11:01.726Z,13
2023-03-14T11:12:16.678Z,17
2023-03-14T11:13:31.393Z,13
2023-03-14T11:14:46.270Z,13
2023-03-14T11:15:53.064Z,12
2023-03-14T11:17:07.697Z,13
2023-03-14T11:18:19.695Z,15
2023-03-14T11:19:36.850Z,24
2023-03-14T11:20:51.624Z,21
2023-03-14T11:22:03.562Z,16
2023-03-14T11:23:18.372Z,17
2023-03-14T11:24:28.081Z,15
2023-03-14T11:25:45.215Z,13
2023-03-14T11:26:58.253Z,15
2023-03-14T11:28:18.201Z,14
2023-03-14T11:29:25.001Z,15
2023-03-14T11:30:36.894Z,12
2023-03-14T11:31:46.470Z,12
2023-03-14T11:32:53.311Z,12
2023-03-14T11:34:08.129Z,10
2023-03-14T11:35:17.600Z,12
2023-03-14T11:36:27.026Z,10
2023-03-14T11:37:36.586Z,15
2023-03-14T11:38:49.068Z,11
2023-03-14T11:40:01.323Z,10
2023-03-14T11:41:18.401Z,10
2023-03-14T11:42:33.442Z,16
2023-03-14T11:43:40.213Z,10
2023-03-14T11:44:47.036Z,11
2023-03-14T11:45:53.736Z,13
2023-03-14T11:47:00.738Z,13
2023-03-14T11:48:12.416Z,11
2023-03-14T11:49:27.066Z,9
2023-03-14T11:50:36.609Z,9
2023-03-14T11:51:43.382Z,11
2023-03-14T11:52:50.131Z,11
2023-03-14T11:53:56.922Z,11
2023-03-14T11:55:08.884Z,10
2023-03-14T11:56:15.639Z,11
2023-03-14T11:57:22.467Z,11
2023-03-14T11:58:29.215Z,10
2023-03-14T11:59:36.014Z,8
2023-03-14T12:00:48.845Z,8
2023-03-14T12:01:55.773Z,9
2023-03-14T12:03:05.405Z,7
2023-03-14T12:04:22.606Z,7
2023-03-14T12:05:39.787Z,8
2023-03-14T12:06:54.547Z,6
2023-03-14T12:08:01.391Z,7
2023-03-14T12:09:10.840Z,10
2023-03-14T12:10:17.669Z,8
2023-03-14T12:11:24.389Z,7
2023-03-14T12:12:41.533Z,10
2023-03-14T12:13:48.347Z,8
2023-03-14T12:14:55.155Z,9
2023-03-14T12:16:02.118Z,10
2023-03-14T12:17:09.027Z,8
2023-03-14T12:18:23.886Z,6
2023-03-14T12:19:33.407Z,6
2023-03-14T12:20:40.272Z,9
2023-03-14T12:21:47.011Z,8
2023-03-14T12:22:56.456Z,9
2023-03-14T12:24:05.868Z,7
2023-03-14T12:25:12.792Z,10
2023-03-14T12:26:23.075Z,7
2023-03-14T12:27:29.319Z,7
2023-03-14T12:28:41.336Z,9
2023-03-14T12:29:53.287Z,7
2023-03-14T12:31:02.838Z,9
2023-03-14T12:32:20.196Z,8
2023-03-14T12:33:26.767Z,7
2023-03-14T12:34:33.524Z,8
2023-03-14T12:35:43.344Z,8
2023-03-14T12:36:55.738Z,9
2023-03-14T12:38:07.699Z,10
2023-03-14T12:39:24.921Z,10
2023-03-14T12:40:42.159Z,9
2023-03-14T12:41:54.260Z,9
2023-03-14T12:43:09.018Z,8
2023-03-14T12:44:21.073Z,10
2023-03-14T12:45:33.188Z,10
2023-03-14T12:46:39.978Z,9
2023-03-14T12:47:47.764Z,9
2023-03-14T12:48:54.499Z,9
2023-03-14T12:50:04.170Z,9
2023-03-14T12:51:10.914Z,9
2023-03-14T12:52:23.773Z,9
2023-03-14T12:53:35.662Z,9
2023-03-14T12:54:52.946Z,9
2023-03-14T12:56:05.073Z,8
2023-03-14T12:57:15.210Z,8
2023-03-14T12:58:27.386Z,9
2023-03-14T12:59:34.358Z,8
2023-03-14T13:00:46.509Z,8
2023-03-14T13:01:58.600Z,7
2023-03-14T13:03:10.758Z,9
2023-03-14T13:04:29.281Z,10
2023-03-14T13:05:30.814Z,8
2023-03-14T13:06:37.773Z,8
2023-03-14T13:07:50.124Z,9
2023-03-14T13:09:02.892Z,10
2023-03-14T13:10:20.233Z,9
2023-03-14T13:11:30.275Z,10
2023-03-14T13:12:37.345Z,11
2023-03-14T13:13:54.703Z,11
2023-03-14T13:15:01.961Z,9
2023-03-14T13:16:14.001Z,10
2023-03-14T13:17:33.944Z,10
2023-03-14T13:18:28.142Z,11
2023-03-14T13:19:41.037Z,12
2023-03-14T13:20:48.051Z,12
2023-03-14T13:22:02.743Z,11
2023-03-14T13:23:14.984Z,10
2023-03-14T13:24:24.816Z,11
2023-03-14T13:25:31.770Z,11
2023-03-14T13:26:38.867Z,10
2023-03-14T13:27:45.825Z,12
2023-03-14T13:28:52.783Z,11
2023-03-14T13:29:59.801Z,10
2023-03-14T13:31:09.796Z,12
2023-03-14T13:32:27.072Z,11
2023-03-14T13:33:35.396Z,10
2023-03-14T13:34:41.013Z,9
2023-03-14T13:35:47.986Z,12
2023-03-14T13:37:00.165Z,9
2023-03-14T13:38:11.814Z,9
2023-03-14T13:39:18.164Z,10
2023-03-14T13:40:23.831Z,9
2023-03-14T13:41:30.769Z,9
2023-03-14T13:42:37.790Z,8
2023-03-14T13:43:44.744Z,9
2023-03-14T13:44:51.738Z,8
2023-03-14T13:45:58.818Z,8
2023-03-14T13:47:08.245Z,8
2023-03-14T13:48:20.361Z,8
2023-03-14T13:49:27.290Z,8
2023-03-14T13:50:34.268Z,8
2023-03-14T13:51:41.334Z,9
2023-03-14T13:52:48.363Z,10
2023-03-14T13:54:00.575Z,10
2023-03-14T13:55:07.500Z,9
2023-03-14T13:56:14.520Z,9
2023-03-14T13:57:21.490Z,9
2023-03-14T13:58:28.496Z,8
2023-03-14T13:59:35.489Z,7
2023-03-14T14:00:42.569Z,8
2023-03-14T14:01:49.650Z,10
2023-03-14T14:02:56.569Z,13
2023-03-14T14:04:03.582Z,18
2023-03-14T14:05:10.497Z,11
2023-03-14T14:06:17.718Z,12
2023-03-14T14:07:32.790Z,11
2023-03-14T14:08:39.679Z,14
2023-03-14T14:09:46.920Z,16
2023-03-14T14:10:53.741Z,14
2023-03-14T14:12:14.697Z,12
2023-03-14T14:13:13.090Z,13
2023-03-14T14:14:20.128Z,10
2023-03-14T14:15:32.824Z,12
2023-03-14T14:16:39.751Z,11
2023-03-14T14:17:46.729Z,15
2023-03-14T14:18:58.862Z,11
2023-03-14T14:20:05.907Z,10
2023-03-14T14:21:13.192Z,12
2023-03-14T14:22:20.289Z,10
2023-03-14T14:23:29.691Z,10
2023-03-14T14:24:36.890Z,11
2023-03-14T14:25:43.985Z,10
2023-03-14T14:26:51.136Z,11
2023-03-14T14:27:58.134Z,13
2023-03-14T14:29:06.739Z,12
2023-03-14T14:30:14.903Z,11
2023-03-14T14:31:22.541Z,8
2023-03-14T14:32:31.817Z,10
2023-03-14T14:33:38.853Z,11
2023-03-14T14:34:47.367Z,10
2023-03-14T14:36:02.760Z,8
2023-03-14T14:37:09.993Z,9
2023-03-14T14:38:22.461Z,8
2023-03-14T14:39:30.748Z,9
2023-03-14T14:40:37.896Z,8
2023-03-14T14:41:50.184Z,7
2023-03-14T14:43:00.228Z,8
2023-03-14T14:44:08.379Z,7
2023-03-14T14:45:16.080Z,7
2023-03-14T14:46:23.323Z,6
2023-03-14T14:47:31.201Z,7
2023-03-14T14:48:38.449Z,7
2023-03-14T14:49:45.576Z,7
2023-03-14T14:50:57.571Z,8
2023-03-14T14:52:05.635Z,6
2023-03-14T14:53:18.453Z,8
2023-03-14T14:54:33.572Z,9
2023-03-14T14:55:48.434Z,8
2023-03-14T14:56:55.454Z,8
2023-03-14T14:58:02.398Z,7
2023-03-14T14:59:20.469Z,9
2023-03-14T15:00:31.241Z,8
2023-03-14T15:01:39.225Z,8
2023-03-14T15:02:46.398Z,6
2023-03-14T15:03:56.690Z,8
2023-03-14T15:05:03.660Z,7
2023-03-14T15:06:12.210Z,8
2023-03-14T15:07:19.054Z,9
2023-03-14T15:08:25.808Z,9
2023-03-14T15:09:32.915Z,8
2023-03-14T15:10:39.775Z,8
2023-03-14T15:11:50.838Z,7
2023-03-14T15:12:57.650Z,7
2023-03-14T15:14:04.444Z,7
2023-03-14T15:15:11.278Z,8
2023-03-14T15:16:18.209Z,7
2023-03-14T15:17:28.270Z,9
2023-03-14T15:18:35.045Z,9
2023-03-14T15:19:41.853Z,11
2023-03-14T15:20:52.440Z,10
2023-03-14T15:21:59.250Z,9
2023-03-14T15:23:06.034Z,11
2023-03-14T15:24:18.003Z,10
2023-03-14T15:25:43.831Z,8
2023-03-14T15:26:31.823Z,8
2023-03-14T15:27:38.580Z,9
2023-03-14T15:28:45.346Z,9
2023-03-14T15:29:52.174Z,9
2023-03-14T15:30:59.972Z,9
2023-03-14T15:32:09.895Z,11
2023-03-14T15:33:16.880Z,10
2023-03-14T15:34:23.894Z,10
2023-03-14T15:35:30.613Z,9
2023-03-14T15:36:37.573Z,8
2023-03-14T15:37:45.378Z,8
2023-03-14T15:38:52.213Z,12
2023-03-14T15:39:59.175Z,14
2023-03-14T15:41:06.106Z,13
2023-03-14T15:42:13.916Z,12
2023-03-14T15:43:20.899Z,12
2023-03-14T15:44:27.594Z,12
2023-03-14T15:45:35.360Z,9
2023-03-14T15:46:42.197Z,9
2023-03-14T15:47:49.086Z,10
2023-03-14T15:49:00.216Z,10
2023-03-14T15:50:08.192Z,9
2023-03-14T15:51:15.063Z,9
2023-03-14T15:52:21.949Z,10
2023-03-14T15:53:28.851Z,8
2023-03-14T15:54:35.677Z,9
2023-03-14T15:55:42.640Z,10
2023-03-14T15:56:51.554Z,8
2023-03-14T15:57:58.369Z,9
2023-03-14T15:59:05.097Z,9
2023-03-14T16:00:11.906Z,11
2023-03-14T16:01:21.207Z,11
2023-03-14T16:02:27.997Z,9
2023-03-14T16:03:36.846Z,11
2023-03-14T16:04:43.873Z,11
2023-03-14T16:05:50.679Z,10
2023-03-14T16:06:57.454Z,11
2023-03-14T16:08:04.226Z,11
2023-03-14T16:09:10.996Z,10
2023-03-14T16:10:17.865Z,10
2023-03-14T16:11:24.627Z,9
2023-03-14T16:12:31.330Z,10
2023-03-14T16:13:38.092Z,9
2023-03-14T16:14:44.829Z,11
2023-03-14T16:15:51.669Z,9
2023-03-14T16:17:01.582Z,10
2023-03-14T16:18:19.175Z,10
2023-03-14T16:19:15.098Z,10
2023-03-14T16:20:21.848Z,12
2023-03-14T16:21:28.663Z,13